Time;durP1;ratioP1;P1;durP2;ratioP2;P2;SDS_P1;SDS_P2;PMS_P1;PMS_P2;Temp;Humidity;BMP_temperature;BMP_pressure;BME280_temperature;BME280_humidity;BME280_pressure;Samples;Min_cycle;Max_cycle;Signal;HPM_P1;HPM_P2
2024/01/20 00:00:54;;;;;;;37.43;17.43;;;;;;;;;;5095706;28;20024;-68
2024/01/20 00:03:20;;;;;;;32.90;16.43;;;;;;;;;;5097763;28;20039;-68
2024/01/20 00:05:45;;;;;;;45.13;20.07;;;;;;;;;;5109473;27;20279;-68
2024/01/20 00:08:10;;;;;;;32.17;15.20;;;;;;;;;;5114623;27;20425;-68
2024/01/20 00:10:36;;;;;;;40.93;19.23;;;;;;;;;;5105186;28;20019;-65
2024/01/20 00:13:01;;;;;;;49.07;23.13;;;;;;;;;;5109821;27;20053;-66
2024/01/20 00:15:27;;;;;;;47.87;22.40;;;;;;;;;;5111952;27;20043;-65
2024/01/20 00:17:52;;;;;;;32.67;17.83;;;;;;;;;;5116121;27;20425;-66
2024/01/20 00:20:17;;;;;;;34.53;16.80;;;;;;;;;;5104463;27;20020;-66
2024/01/20 00:22:42;;;;;;;46.50;22.27;;;;;;;;;;5113959;27;20119;-66
2024/01/20 00:25:08;;;;;;;37.33;17.50;;;;;;;;;;5106233;27;20110;-66
2024/01/20 00:27:34;;;;;;;25.23;13.17;;;;;;;;;;5114997;27;20077;-67
2024/01/20 00:29:59;;;;;;;31.13;13.57;;;;;;;;;;5094120;27;20476;-65
2024/01/20 00:32:25;;;;;;;41.00;19.00;;;;;;;;;;5114151;27;20028;-66
2024/01/20 00:34:50;;;;;;;26.37;14.23;;;;;;;;;;5117789;27;20092;-66
2024/01/20 00:37:15;;;;;;;35.23;18.10;;;;;;;;;;5120993;27;20032;-66
2024/01/20 00:39:40;;;;;;;42.13;20.10;;;;;;;;;;5114958;27;20015;-66
2024/01/20 00:42:06;;;;;;;35.33;17.07;;;;;;;;;;5111769;27;20052;-66
2024/01/20 00:44:31;;;;;;;32.57;16.47;;;;;;;;;;5093529;28;20012;-66
2024/01/20 00:46:56;;;;;;;37.37;19.30;;;;;;;;;;5112779;27;20102;-66
2024/01/20 00:49:22;;;;;;;48.17;22.80;;;;;;;;;;5117617;27;20091;-66
2024/01/20 00:51:47;;;;;;;39.63;17.67;;;;;;;;;;5114930;27;20019;-66
2024/01/20 00:54:13;;;;;;;34.37;17.80;;;;;;;;;;5112920;27;20125;-65
2024/01/20 00:56:38;;;;;;;43.80;20.03;;;;;;;;;;5093579;28;20070;-66
2024/01/20 00:59:04;;;;;;;48.30;23.97;;;;;;;;;;5114589;27;20948;-66
2024/01/20 01:01:29;;;;;;;44.63;20.70;;;;;;;;;;5117449;27;20032;-67
2024/01/20 01:03:54;;;;;;;29.97;16.70;;;;;;;;;;5088059;28;20064;-66
2024/01/20 01:06:19;;;;;;;38.20;18.10;;;;;;;;;;5089306;28;20043;-66
2024/01/20 01:08:45;;;;;;;49.00;24.10;;;;;;;;;;5090808;28;20051;-66
2024/01/20 01:11:10;;;;;;;52.63;25.50;;;;;;;;;;5089829;28;20032;-68
2024/01/20 01:13:37;;;;;;;56.57;24.93;;;;;;;;;;5090476;28;20080;-68
2024/01/20 01:16:03;;;;;;;33.57;15.47;;;;;;;;;;5088927;28;20114;-69
2024/01/20 01:18:28;;;;;;;55.73;26.83;;;;;;;;;;5083729;28;20430;-68
2024/01/20 01:20:53;;;;;;;51.57;24.87;;;;;;;;;;5093695;28;20442;-68
2024/01/20 01:23:18;;;;;;;60.80;25.87;;;;;;;;;;5094652;28;20024;-68
2024/01/20 01:25:44;;;;;;;59.53;26.33;;;;;;;;;;5094863;28;20032;-68
2024/01/20 01:28:09;;;;;;;44.27;19.73;;;;;;;;;;5091962;28;20027;-68
2024/01/20 01:30:34;;;;;;;49.13;23.73;;;;;;;;;;5094053;28;20102;-68
2024/01/20 01:32:59;;;;;;;53.47;27.07;;;;;;;;;;5095126;28;20016;-68
2024/01/20 01:35:25;;;;;;;35.33;17.17;;;;;;;;;;5092231;28;20023;-68
2024/01/20 01:37:50;;;;;;;25.83;13.50;;;;;;;;;;5096041;28;20094;-68
2024/01/20 01:40:15;;;;;;;53.83;24.03;;;;;;;;;;5098955;28;20039;-68
2024/01/20 01:42:40;;;;;;;50.53;24.03;;;;;;;;;;5087680;28;20025;-68
2024/01/20 01:45:06;;;;;;;54.83;23.90;;;;;;;;;;5090157;28;20093;-68
2024/01/20 01:47:31;;;;;;;51.97;23.40;;;;;;;;;;5096190;28;20052;-68
2024/01/20 01:49:57;;;;;;;45.67;21.23;;;;;;;;;;5098872;28;20032;-68
2024/01/20 01:52:23;;;;;;;51.83;24.93;;;;;;;;;;5094078;28;20085;-68
2024/01/20 01:54:48;;;;;;;49.70;23.37;;;;;;;;;;5093527;28;20031;-68
2024/01/20 01:57:14;;;;;;;53.37;25.83;;;;;;;;;;5094448;28;20027;-68
2024/01/20 01:59:40;;;;;;;46.90;20.80;;;;;;;;;;5094140;28;20093;-68
2024/01/20 02:02:05;;;;;;;59.23;27.00;;;;;;;;;;5094736;28;20052;-68
2024/01/20 02:04:31;;;;;;;55.93;28.37;;;;;;;;;;5085654;28;20381;-68
2024/01/20 02:06:56;;;;;;;52.57;25.13;;;;;;;;;;5088332;28;20701;-68
2024/01/20 02:09:22;;;;;;;48.70;24.33;;;;;;;;;;5090029;28;20494;-68
2024/01/20 02:11:48;;;;;;;54.00;24.17;;;;;;;;;;5095908;28;20032;-68
2024/01/20 02:14:13;;;;;;;56.37;26.83;;;;;;;;;;5092445;28;20024;-68
2024/01/20 02:16:39;;;;;;;50.00;23.67;;;;;;;;;;5090041;28;20028;-68
2024/01/20 02:19:04;;;;;;;51.27;22.10;;;;;;;;;;5092886;28;20024;-68
2024/01/20 02:21:30;;;;;;;50.33;22.17;;;;;;;;;;5092230;28;20085;-66
2024/01/20 02:23:56;;;;;;;52.13;22.63;;;;;;;;;;5095218;28;20023;-67
2024/01/20 02:26:21;;;;;;;44.60;20.00;;;;;;;;;;5092739;28;20106;-66
2024/01/20 02:28:48;;;;;;;51.47;23.13;;;;;;;;;;5092888;28;20035;-66
2024/01/20 02:31:13;;;;;;;55.03;23.40;;;;;;;;;;5093964;28;20016;-66
2024/01/20 02:33:38;;;;;;;56.80;23.00;;;;;;;;;;5097821;28;20074;-65
2024/01/20 02:36:03;;;;;;;58.73;24.87;;;;;;;;;;5098518;28;20024;-66
2024/01/20 02:38:29;;;;;;;56.07;21.07;;;;;;;;;;5096656;28;20110;-65
2024/01/20 02:40:54;;;;;;;48.60;20.17;;;;;;;;;;5097431;28;20024;-66
2024/01/20 02:43:19;;;;;;;49.60;21.90;;;;;;;;;;5096763;28;20066;-66
2024/01/20 02:45:45;;;;;;;50.27;20.93;;;;;;;;;;5096774;28;20028;-65
2024/01/20 02:48:10;;;;;;;69.67;26.30;;;;;;;;;;5090317;28;20016;-67
2024/01/20 02:50:35;;;;;;;51.70;23.97;;;;;;;;;;5100653;28;20170;-66
2024/01/20 02:53:00;;;;;;;63.97;25.77;;;;;;;;;;5095975;28;20028;-66
2024/01/20 02:55:26;;;;;;;55.77;23.20;;;;;;;;;;5090063;28;20043;-66
2024/01/20 02:57:51;;;;;;;44.93;19.63;;;;;;;;;;5098483;28;20028;-66
2024/01/20 03:00:16;;;;;;;51.07;22.90;;;;;;;;;;5089726;28;20491;-66
2024/01/20 03:02:41;;;;;;;48.30;19.70;;;;;;;;;;5095340;28;20049;-66
2024/01/20 03:05:07;;;;;;;56.80;23.20;;;;;;;;;;5089623;28;20042;-65
2024/01/20 03:07:32;;;;;;;53.67;20.07;;;;;;;;;;5095439;28;20452;-66
2024/01/20 03:09:57;;;;;;;45.37;18.50;;;;;;;;;;5097121;28;20552;-65
2024/01/20 03:12:23;;;;;;;56.57;22.07;;;;;;;;;;5084794;28;20197;-66
2024/01/20 03:14:48;;;;;;;55.53;20.23;;;;;;;;;;5092386;28;20012;-66
2024/01/20 03:17:13;;;;;;;60.23;22.23;;;;;;;;;;5093587;28;20019;-67
2024/01/20 03:19:38;;;;;;;60.93;23.03;;;;;;;;;;5098387;28;20020;-66
2024/01/20 03:22:04;;;;;;;54.47;21.83;;;;;;;;;;5098553;28;20036;-66
2024/01/20 03:24:29;;;;;;;51.63;21.13;;;;;;;;;;5094683;28;20128;-66
2024/01/20 03:26:55;;;;;;;35.50;13.43;;;;;;;;;;5091707;28;20036;-66
2024/01/20 03:29:21;;;;;;;53.27;17.70;;;;;;;;;;5093812;28;20514;-66
2024/01/20 03:31:46;;;;;;;41.97;15.23;;;;;;;;;;5096330;28;20024;-66
2024/01/20 03:34:11;;;;;;;58.20;21.10;;;;;;;;;;5096799;28;20024;-66
2024/01/20 03:36:37;;;;;;;54.17;21.43;;;;;;;;;;5093715;28;20035;-67
2024/01/20 03:39:02;;;;;;;60.87;22.73;;;;;;;;;;5089745;28;20040;-66
2024/01/20 03:41:27;;;;;;;56.73;19.73;;;;;;;;;;5092343;28;20038;-67
2024/01/20 03:43:53;;;;;;;39.47;15.17;;;;;;;;;;5094994;28;20027;-66
2024/01/20 03:46:18;;;;;;;52.40;19.77;;;;;;;;;;5092230;28;20655;-66
2024/01/20 03:48:43;;;;;;;33.90;13.73;;;;;;;;;;5094522;28;20365;-66
2024/01/20 03:51:09;;;;;;;40.07;15.30;;;;;;;;;;5087667;28;20495;-67
2024/01/20 03:53:34;;;;;;;47.03;15.90;;;;;;;;;;5095263;28;20024;-65
2024/01/20 03:56:00;;;;;;;42.03;16.13;;;;;;;;;;5092872;28;20028;-66
2024/01/20 03:58:26;;;;;;;50.67;19.70;;;;;;;;;;5090175;28;20028;-66
2024/01/20 04:00:51;;;;;;;42.90;16.13;;;;;;;;;;5095699;28;20031;-66
2024/01/20 04:03:16;;;;;;;57.87;21.40;;;;;;;;;;5105619;27;20055;-67
2024/01/20 04:05:41;;;;;;;48.43;17.73;;;;;;;;;;5108320;27;20071;-66
2024/01/20 04:08:07;;;;;;;49.93;17.40;;;;;;;;;;5109373;28;20447;-66
2024/01/20 04:10:32;;;;;;;50.80;17.80;;;;;;;;;;5104093;28;20038;-66
2024/01/20 04:12:57;;;;;;;34.77;13.87;;;;;;;;;;5111090;27;21072;-67
2024/01/20 04:15:23;;;;;;;54.80;18.87;;;;;;;;;;5105555;27;20023;-66
2024/01/20 04:17:48;;;;;;;43.00;15.93;;;;;;;;;;5117420;27;20038;-66
2024/01/20 04:20:13;;;;;;;52.40;17.67;;;;;;;;;;5112960;27;20058;-66
2024/01/20 04:22:38;;;;;;;58.27;19.60;;;;;;;;;;5101449;27;20062;-66
2024/01/20 04:25:04;;;;;;;54.17;19.63;;;;;;;;;;5105867;28;20032;-66
2024/01/20 04:27:29;;;;;;;50.30;17.87;;;;;;;;;;5114533;27;20015;-66
2024/01/20 04:29:54;;;;;;;42.03;14.87;;;;;;;;;;5116901;27;20046;-66
2024/01/20 04:32:20;;;;;;;53.70;18.80;;;;;;;;;;5115421;27;20459;-66
2024/01/20 04:34:45;;;;;;;54.47;18.47;;;;;;;;;;5109071;27;20034;-66
2024/01/20 04:37:10;;;;;;;47.03;15.73;;;;;;;;;;5107672;27;20023;-66
2024/01/20 04:39:35;;;;;;;57.60;19.27;;;;;;;;;;5113270;27;20043;-67
2024/01/20 04:42:01;;;;;;;53.23;20.30;;;;;;;;;;5112999;27;20043;-66
2024/01/20 04:44:26;;;;;;;55.63;18.63;;;;;;;;;;5110478;27;20085;-66
2024/01/20 04:46:51;;;;;;;53.43;17.83;;;;;;;;;;5113837;27;20023;-66
2024/01/20 04:49:17;;;;;;;33.53;13.10;;;;;;;;;;5110455;27;20372;-66
2024/01/20 04:51:42;;;;;;;84.17;20.73;;;;;;;;;;5100617;27;20436;-68
2024/01/20 04:54:07;;;;;;;51.50;16.33;;;;;;;;;;5109441;27;20039;-69
2024/01/20 04:56:33;;;;;;;46.47;17.20;;;;;;;;;;5120534;27;20032;-68
2024/01/20 04:58:58;;;;;;;48.63;16.87;;;;;;;;;;5122904;27;20039;-68
2024/01/20 05:01:23;;;;;;;54.83;18.07;;;;;;;;;;5116612;27;20126;-68
2024/01/20 05:03:49;;;;;;;34.07;13.27;;;;;;;;;;5096980;27;20420;-68
2024/01/20 05:06:14;;;;;;;49.90;17.10;;;;;;;;;;5096342;28;20028;-68
2024/01/20 05:08:39;;;;;;;46.93;16.07;;;;;;;;;;5100634;28;20471;-69
2024/01/20 05:11:05;;;;;;;47.27;17.47;;;;;;;;;;5096661;28;20085;-69
2024/01/20 05:13:30;;;;;;;48.00;16.03;;;;;;;;;;5099454;28;20028;-68
2024/01/20 05:15:56;;;;;;;51.33;16.80;;;;;;;;;;5097403;28;20032;-68
2024/01/20 05:18:21;;;;;;;47.53;18.53;;;;;;;;;;5096797;28;20562;-68
2024/01/20 05:20:46;;;;;;;40.77;15.90;;;;;;;;;;5099420;28;20020;-68
2024/01/20 05:23:12;;;;;;;57.00;20.10;;;;;;;;;;5095199;28;20479;-68
2024/01/20 05:25:37;;;;;;;58.00;17.93;;;;;;;;;;5094216;28;20032;-69
2024/01/20 05:28:02;;;;;;;48.80;17.17;;;;;;;;;;5093403;28;20119;-68
2024/01/20 05:30:28;;;;;;;44.67;13.03;;;;;;;;;;5092087;28;20028;-68
2024/01/20 05:32:53;;;;;;;48.17;15.97;;;;;;;;;;5091024;28;20049;-68
2024/01/20 05:35:18;;;;;;;62.97;20.40;;;;;;;;;;5092841;28;20491;-68
2024/01/20 05:37:44;;;;;;;57.57;18.37;;;;;;;;;;5095168;28;20019;-68
2024/01/20 05:40:09;;;;;;;37.47;13.17;;;;;;;;;;5091492;28;20039;-68
2024/01/20 05:42:34;;;;;;;56.10;18.10;;;;;;;;;;5081591;28;20033;-68
2024/01/20 05:45:00;;;;;;;55.47;18.93;;;;;;;;;;5094067;28;20150;-68
2024/01/20 05:47:25;;;;;;;55.60;18.90;;;;;;;;;;5096829;28;20020;-68
2024/01/20 05:49:51;;;;;;;51.20;17.50;;;;;;;;;;5092003;28;20027;-68
2024/01/20 05:52:16;;;;;;;51.83;16.63;;;;;;;;;;5089294;28;20025;-68
2024/01/20 05:54:41;;;;;;;59.33;19.77;;;;;;;;;;5092103;28;20634;-68
2024/01/20 05:57:07;;;;;;;53.87;19.10;;;;;;;;;;5093447;28;20032;-68
2024/01/20 05:59:32;;;;;;;53.27;16.83;;;;;;;;;;5091493;28;20040;-68
2024/01/20 06:01:57;;;;;;;53.20;17.13;;;;;;;;;;5100262;27;20047;-66
2024/01/20 06:04:23;;;;;;;49.20;15.93;;;;;;;;;;5121091;27;20098;-66
2024/01/20 06:06:48;;;;;;;49.10;17.47;;;;;;;;;;5121405;27;20031;-66
2024/01/20 06:09:14;;;;;;;43.37;16.10;;;;;;;;;;5122296;27;20015;-66
2024/01/20 06:11:40;;;;;;;51.00;18.23;;;;;;;;;;5119900;27;20022;-67
2024/01/20 06:14:05;;;;;;;55.73;18.93;;;;;;;;;;5118480;27;20015;-66
2024/01/20 06:16:31;;;;;;;60.80;19.63;;;;;;;;;;5117387;27;20031;-67
2024/01/20 06:18:56;;;;;;;58.60;19.00;;;;;;;;;;5114739;27;20024;-66
2024/01/20 06:21:21;;;;;;;60.97;20.83;;;;;;;;;;5116304;27;20554;-66
2024/01/20 06:23:48;;;;;;;64.17;19.00;;;;;;;;;;5121055;27;20027;-66
2024/01/20 06:26:13;;;;;;;49.47;17.80;;;;;;;;;;5114376;27;20042;-66
2024/01/20 06:28:38;;;;;;;55.47;16.97;;;;;;;;;;5109470;27;20019;-66
2024/01/20 06:31:04;;;;;;;68.87;20.40;;;;;;;;;;5116719;27;20431;-66
2024/01/20 06:33:29;;;;;;;49.93;17.47;;;;;;;;;;5119207;27;20047;-66
2024/01/20 06:35:54;;;;;;;53.77;17.03;;;;;;;;;;5123382;27;20030;-65
2024/01/20 06:38:20;;;;;;;54.13;20.03;;;;;;;;;;5115408;27;20031;-66
2024/01/20 06:40:45;;;;;;;61.97;20.17;;;;;;;;;;5110561;27;20094;-66
2024/01/20 06:43:10;;;;;;;42.67;14.60;;;;;;;;;;5117464;27;20059;-66
2024/01/20 06:45:35;;;;;;;56.63;18.67;;;;;;;;;;5117026;27;20521;-66
2024/01/20 06:48:04;;;;;;;51.90;17.40;;;;;;;;;;5116532;27;20057;-67
2024/01/20 06:50:30;;;;;;;54.63;17.57;;;;;;;;;;5107624;27;20058;-66
2024/01/20 06:52:55;;;;;;;60.70;20.20;;;;;;;;;;5117106;27;20046;-66
2024/01/20 06:55:20;;;;;;;49.30;16.30;;;;;;;;;;5114423;27;20494;-66
2024/01/20 06:57:45;;;;;;;55.87;19.57;;;;;;;;;;5115480;27;20024;-65
2024/01/20 07:00:11;;;;;;;45.43;13.73;;;;;;;;;;5112576;27;20059;-65
2024/01/20 07:02:36;;;;;;;58.70;18.63;;;;;;;;;;5104532;27;20040;-65
2024/01/20 07:05:02;;;;;;;39.33;14.37;;;;;;;;;;5115569;27;20054;-65
2024/01/20 07:07:27;;;;;;;44.40;15.97;;;;;;;;;;5117182;27;20024;-65
2024/01/20 07:09:52;;;;;;;52.63;18.13;;;;;;;;;;5115082;27;20100;-65
2024/01/20 07:12:17;;;;;;;43.20;14.53;;;;;;;;;;5114229;27;20023;-66
2024/01/20 07:14:43;;;;;;;43.90;15.63;;;;;;;;;;5115882;27;20437;-65
2024/01/20 07:17:08;;;;;;;50.03;17.17;;;;;;;;;;5117303;27;20516;-65
2024/01/20 07:19:34;;;;;;;51.60;16.80;;;;;;;;;;5112699;27;20092;-65
2024/01/20 07:21:59;;;;;;;44.03;14.43;;;;;;;;;;5116802;27;20031;-65
2024/01/20 07:24:24;;;;;;;45.83;15.93;;;;;;;;;;5118391;27;20032;-65
2024/01/20 07:26:50;;;;;;;53.33;16.67;;;;;;;;;;5117482;27;20020;-65
2024/01/20 07:29:15;;;;;;;60.03;18.67;;;;;;;;;;5118023;27;20023;-66
2024/01/20 07:31:40;;;;;;;43.40;15.23;;;;;;;;;;5117097;27;20103;-66
2024/01/20 07:34:06;;;;;;;44.80;14.60;;;;;;;;;;5122361;27;20016;-66
2024/01/20 07:36:31;;;;;;;44.13;15.37;;;;;;;;;;5116663;27;20395;-65
2024/01/20 07:38:56;;;;;;;45.30;15.77;;;;;;;;;;5119728;27;20027;-66
2024/01/20 07:41:22;;;;;;;49.77;16.47;;;;;;;;;;5115746;27;20038;-65
2024/01/20 07:43:47;;;;;;;39.53;15.33;;;;;;;;;;5120197;27;20031;-65
2024/01/20 07:46:12;;;;;;;37.30;14.27;;;;;;;;;;5116189;27;20066;-66
2024/01/20 07:48:37;;;;;;;41.57;15.13;;;;;;;;;;5110358;27;20024;-66
2024/01/20 07:51:03;;;;;;;46.33;17.37;;;;;;;;;;5122410;27;20027;-66
2024/01/20 07:53:28;;;;;;;40.83;13.10;;;;;;;;;;5119049;27;20026;-66
2024/01/20 07:55:53;;;;;;;41.57;16.00;;;;;;;;;;5114456;27;20023;-66
2024/01/20 07:58:19;;;;;;;45.90;15.63;;;;;;;;;;5109612;27;20058;-65
2024/01/20 08:00:44;;;;;;;43.90;15.50;;;;;;;;;;5112249;27;20039;-66
2024/01/20 08:03:09;;;;;;;47.37;16.47;;;;;;;;;;5119410;27;20126;-66
2024/01/20 08:05:34;;;;;;;30.63;10.87;;;;;;;;;;5111763;27;20396;-66
2024/01/20 08:08:00;;;;;;;41.73;14.30;;;;;;;;;;5113203;27;20023;-65
2024/01/20 08:10:25;;;;;;;48.53;16.17;;;;;;;;;;5109387;27;20036;-66
2024/01/20 08:12:51;;;;;;;28.73;10.60;;;;;;;;;;5111823;27;20409;-65
2024/01/20 08:15:17;;;;;;;43.50;13.67;;;;;;;;;;5116243;27;20368;-65
2024/01/20 08:17:42;;;;;;;32.23;11.97;;;;;;;;;;5111847;27;20020;-65
2024/01/20 08:20:08;;;;;;;43.27;14.83;;;;;;;;;;5114316;27;20472;-66
2024/01/20 08:22:33;;;;;;;45.13;14.67;;;;;;;;;;5106803;27;20020;-66
2024/01/20 08:24:59;;;;;;;34.77;12.60;;;;;;;;;;5116192;27;20476;-65
2024/01/20 08:27:25;;;;;;;34.90;12.20;;;;;;;;;;5113831;27;20457;-67
2024/01/20 08:29:50;;;;;;;27.53;9.67;;;;;;;;;;5105531;27;20030;-66
2024/01/20 08:32:15;;;;;;;36.50;13.63;;;;;;;;;;5114811;27;20020;-66
2024/01/20 08:34:40;;;;;;;48.33;17.63;;;;;;;;;;5114611;27;20093;-65
2024/01/20 08:37:06;;;;;;;34.57;13.50;;;;;;;;;;5117256;27;20072;-66
2024/01/20 08:39:31;;;;;;;46.63;16.17;;;;;;;;;;5103854;27;20019;-65
2024/01/20 08:41:56;;;;;;;41.87;14.83;;;;;;;;;;5115417;27;20119;-66
2024/01/20 08:44:22;;;;;;;33.10;12.03;;;;;;;;;;5106483;27;20031;-66
2024/01/20 08:46:47;;;;;;;40.90;15.23;;;;;;;;;;5114285;27;20536;-66
2024/01/20 08:49:13;;;;;;;30.13;11.77;;;;;;;;;;5116636;27;20054;-66
2024/01/20 08:51:38;;;;;;;35.20;14.27;;;;;;;;;;5113169;27;20022;-66
2024/01/20 08:54:04;;;;;;;37.13;13.63;;;;;;;;;;5118182;27;20467;-66
2024/01/20 08:56:29;;;;;;;34.70;12.53;;;;;;;;;;5105285;27;20130;-66
2024/01/20 08:58:54;;;;;;;28.00;10.63;;;;;;;;;;5120282;27;20023;-66
2024/01/20 09:01:19;;;;;;;32.87;12.83;;;;;;;;;;5114808;27;20032;-66
2024/01/20 09:03:45;;;;;;;38.30;15.27;;;;;;;;;;5095133;28;20044;-66
2024/01/20 09:06:14;;;;;;;26.90;10.37;;;;;;;;;;5094615;28;20032;-66
2024/01/20 09:08:40;;;;;;;36.03;12.13;;;;;;;;;;5091777;28;20015;-66
2024/01/20 09:11:05;;;;;;;35.60;13.70;;;;;;;;;;5091449;28;20490;-65
2024/01/20 09:13:30;;;;;;;31.63;13.07;;;;;;;;;;5087830;28;20023;-66
2024/01/20 09:15:56;;;;;;;33.97;12.77;;;;;;;;;;5090416;28;20056;-65
2024/01/20 09:18:21;;;;;;;32.03;10.73;;;;;;;;;;5092669;28;20047;-64
2024/01/20 09:20:46;;;;;;;30.40;10.90;;;;;;;;;;5091549;28;20072;-65
2024/01/20 09:23:12;;;;;;;36.33;13.00;;;;;;;;;;5095212;28;20024;-64
2024/01/20 09:25:38;;;;;;;27.00;10.27;;;;;;;;;;5093005;28;20036;-66
2024/01/20 09:28:04;;;;;;;32.83;13.43;;;;;;;;;;5092958;28;20051;-66
2024/01/20 09:30:29;;;;;;;34.73;13.43;;;;;;;;;;5084731;28;20020;-65
2024/01/20 09:32:54;;;;;;;29.67;11.90;;;;;;;;;;5094743;28;20608;-67
2024/01/20 09:35:20;;;;;;;34.63;13.33;;;;;;;;;;5095998;28;20026;-67
2024/01/20 09:37:45;;;;;;;34.30;13.13;;;;;;;;;;5085020;28;20062;-67
2024/01/20 09:40:11;;;;;;;31.97;13.70;;;;;;;;;;5086973;28;20028;-67
2024/01/20 09:42:36;;;;;;;26.53;11.47;;;;;;;;;;5088181;28;20047;-67
2024/01/20 09:45:02;;;;;;;34.33;13.67;;;;;;;;;;5097729;28;20113;-67
2024/01/20 09:47:27;;;;;;;30.43;11.90;;;;;;;;;;5090310;28;20016;-67
2024/01/20 09:49:53;;;;;;;21.67;8.83;;;;;;;;;;5090015;28;20541;-66
2024/01/20 09:52:28;;;;;;;32.83;12.60;;;;;;;;;;5094752;28;20024;-67
2024/01/20 09:54:54;;;;;;;26.33;11.23;;;;;;;;;;5087203;28;20469;-67
2024/01/20 09:57:20;;;;;;;31.17;11.50;;;;;;;;;;5094551;28;20031;-67
2024/01/20 09:59:45;;;;;;;33.57;12.90;;;;;;;;;;5091621;28;20133;-67
2024/01/20 10:02:11;;;;;;;28.07;11.57;;;;;;;;;;5097361;28;20097;-65
2024/01/20 10:04:39;;;;;;;32.43;12.67;;;;;;;;;;5111246;28;20392;-67
2024/01/20 10:07:04;;;;;;;32.20;13.20;;;;;;;;;;5118613;28;20042;-67
2024/01/20 10:09:30;;;;;;;26.90;10.13;;;;;;;;;;5119578;28;20019;-66
2024/01/20 10:11:56;;;;;;;36.33;13.23;;;;;;;;;;5103478;28;20087;-67
2024/01/20 10:14:21;;;;;;;30.27;12.27;;;;;;;;;;5109552;28;20095;-67
2024/01/20 10:16:46;;;;;;;31.00;12.43;;;;;;;;;;5106266;28;20024;-67
2024/01/20 10:19:12;;;;;;;38.10;13.57;;;;;;;;;;5110209;28;20019;-67
2024/01/20 10:21:40;;;;;;;31.37;12.73;;;;;;;;;;5106710;28;20063;-67
2024/01/20 10:24:07;;;;;;;30.47;11.10;;;;;;;;;;5112445;28;20081;-67
2024/01/20 10:26:40;;;;;;;35.10;12.07;;;;;;;;;;5111075;28;20019;-67
2024/01/20 10:29:05;;;;;;;27.83;12.30;;;;;;;;;;5104871;28;20515;-68
2024/01/20 10:31:31;;;;;;;29.20;10.70;;;;;;;;;;5110524;28;20122;-68
2024/01/20 10:33:56;;;;;;;32.87;13.20;;;;;;;;;;5110062;28;20008;-68
2024/01/20 10:36:22;;;;;;;26.37;10.20;;;;;;;;;;5110256;28;20027;-68
2024/01/20 10:38:49;;;;;;;27.03;11.33;;;;;;;;;;5106192;28;20077;-68
2024/01/20 10:41:16;;;;;;;27.90;11.40;;;;;;;;;;5109487;28;20023;-68
2024/01/20 10:43:45;;;;;;;30.80;11.97;;;;;;;;;;5111873;28;20019;-66
2024/01/20 10:46:13;;;;;;;32.57;11.77;;;;;;;;;;5107510;28;20034;-66
2024/01/20 10:48:42;;;;;;;26.30;9.40;;;;;;;;;;5104761;27;20019;-67
2024/01/20 10:51:09;;;;;;;20.23;9.03;;;;;;;;;;5085848;28;20030;-67
2024/01/20 10:53:35;;;;;;;27.63;10.30;;;;;;;;;;5113021;27;20057;-66
2024/01/20 10:56:01;;;;;;;32.37;12.60;;;;;;;;;;5114314;27;20031;-67
2024/01/20 10:58:35;;;;;;;28.43;11.20;;;;;;;;;;5119138;27;20099;-66
2024/01/20 11:01:00;;;;;;;29.93;11.43;;;;;;;;;;5110652;27;20023;-66
2024/01/20 11:03:26;;;;;;;25.10;11.33;;;;;;;;;;5111274;27;20434;-66
2024/01/20 11:05:51;;;;;;;29.97;11.97;;;;;;;;;;5121114;27;20027;-66
2024/01/20 11:08:24;;;;;;;23.13;10.50;;;;;;;;;;5114943;27;20067;-67
2024/01/20 11:10:51;;;;;;;26.83;11.13;;;;;;;;;;5112713;27;20023;-66
2024/01/20 11:13:16;;;;;;;26.97;10.83;;;;;;;;;;5114925;27;20471;-67
2024/01/20 11:15:41;;;;;;;29.43;11.80;;;;;;;;;;5098142;28;20027;-67
2024/01/20 11:18:19;;;;;;;24.90;11.33;;;;;;;;;;5107628;27;20022;-67
2024/01/20 11:20:54;;;;;;;28.70;11.37;;;;;;;;;;5115426;27;20023;-67
2024/01/20 11:23:19;;;;;;;27.93;11.17;;;;;;;;;;5114994;27;20538;-66
2024/01/20 11:25:44;;;;;;;24.60;10.40;;;;;;;;;;5115605;27;20114;-64
2024/01/20 11:28:09;;;;;;;21.13;8.40;;;;;;;;;;5117035;27;20077;-64
2024/01/20 11:30:35;;;;;;;24.77;10.57;;;;;;;;;;5111338;27;20087;-64
2024/01/20 11:33:01;;;;;;;18.97;8.57;;;;;;;;;;5097063;28;20016;-66
2024/01/20 11:35:26;;;;;;;31.13;11.63;;;;;;;;;;5108195;27;20019;-67
2024/01/20 11:37:57;;;;;;;27.43;11.03;;;;;;;;;;5114761;27;20124;-64
2024/01/20 11:40:23;;;;;;;20.50;9.13;;;;;;;;;;5110488;27;20789;-64
2024/01/20 11:42:48;;;;;;;17.83;7.50;;;;;;;;;;5120873;27;20032;-63
2024/01/20 11:45:13;;;;;;;25.73;12.17;;;;;;;;;;5113778;27;20020;-63
2024/01/20 11:47:39;;;;;;;23.20;10.17;;;;;;;;;;5107795;27;20426;-64
2024/01/20 11:50:05;;;;;;;20.47;9.10;;;;;;;;;;5106238;27;20122;-64
2024/01/20 11:52:30;;;;;;;25.47;11.40;;;;;;;;;;5102953;27;20016;-65
2024/01/20 11:54:56;;;;;;;20.97;8.30;;;;;;;;;;5107549;27;20032;-64
2024/01/20 11:57:24;;;;;;;16.50;7.73;;;;;;;;;;5107678;27;20104;-64
2024/01/20 11:59:49;;;;;;;24.97;9.93;;;;;;;;;;5111436;27;20463;-64
2024/01/20 12:02:18;;;;;;;21.93;8.90;;;;;;;;;;5108513;27;20043;-64
2024/01/20 12:04:43;;;;;;;24.00;10.43;;;;;;;;;;5110462;27;20476;-64
2024/01/20 12:07:08;;;;;;;25.50;9.37;;;;;;;;;;5109201;27;20031;-64
2024/01/20 12:09:34;;;;;;;23.40;9.57;;;;;;;;;;5113027;27;20030;-66
2024/01/20 12:12:00;;;;;;;24.77;9.70;;;;;;;;;;5107111;28;20080;-65
2024/01/20 12:14:25;;;;;;;23.03;9.80;;;;;;;;;;5115826;27;20022;-65
2024/01/20 12:16:52;;;;;;;21.13;9.17;;;;;;;;;;5113340;27;20169;-64
2024/01/20 12:19:17;;;;;;;24.47;9.80;;;;;;;;;;5113323;27;20906;-63
2024/01/20 12:21:42;;;;;;;20.67;8.17;;;;;;;;;;5102784;27;20025;-63
2024/01/20 12:24:11;;;;;;;21.97;9.57;;;;;;;;;;5116127;27;20031;-63
2024/01/20 12:26:36;;;;;;;19.00;8.40;;;;;;;;;;5114028;27;20024;-63
2024/01/20 12:29:02;;;;;;;21.03;9.33;;;;;;;;;;5115990;27;20330;-64
2024/01/20 12:31:28;;;;;;;25.87;10.20;;;;;;;;;;5113740;27;20646;-64
2024/01/20 12:33:53;;;;;;;25.93;10.20;;;;;;;;;;5104903;27;20019;-63
2024/01/20 12:36:18;;;;;;;23.70;9.10;;;;;;;;;;5115916;27;20016;-66
2024/01/20 12:38:43;;;;;;;22.73;9.37;;;;;;;;;;5117385;27;20302;-66
2024/01/20 12:41:09;;;;;;;22.27;8.97;;;;;;;;;;5112198;27;20027;-64
2024/01/20 12:43:35;;;;;;;23.63;9.67;;;;;;;;;;5106823;27;20031;-65
2024/01/20 12:46:00;;;;;;;17.97;7.63;;;;;;;;;;5107762;27;20034;-65
2024/01/20 12:48:25;;;;;;;19.70;8.30;;;;;;;;;;5108429;27;20030;-64
2024/01/20 12:50:51;;;;;;;22.53;9.47;;;;;;;;;;5112339;27;20106;-65
2024/01/20 12:53:16;;;;;;;27.40;9.83;;;;;;;;;;5110604;27;20028;-64
2024/01/20 12:55:42;;;;;;;27.47;10.63;;;;;;;;;;5105475;27;20492;-64
2024/01/20 12:58:08;;;;;;;27.57;10.33;;;;;;;;;;5106872;27;20435;-65
2024/01/20 13:00:33;;;;;;;22.70;10.27;;;;;;;;;;5111149;27;20066;-64
2024/01/20 13:02:59;;;;;;;20.63;7.67;;;;;;;;;;5112794;27;20749;-66
2024/01/20 13:05:24;;;;;;;22.07;7.80;;;;;;;;;;5110829;27;20034;-67
2024/01/20 13:07:49;;;;;;;19.37;8.10;;;;;;;;;;5113667;27;20020;-66
2024/01/20 13:10:14;;;;;;;27.20;11.50;;;;;;;;;;5113038;27;20023;-66
2024/01/20 13:12:40;;;;;;;27.83;10.87;;;;;;;;;;5114677;27;20047;-66
2024/01/20 13:15:05;;;;;;;22.73;9.93;;;;;;;;;;5107134;27;20117;-66
2024/01/20 13:17:31;;;;;;;29.07;11.03;;;;;;;;;;5114303;27;20054;-66
2024/01/20 13:19:56;;;;;;;21.97;9.93;;;;;;;;;;5109634;27;20118;-67
2024/01/20 13:22:21;;;;;;;27.20;11.83;;;;;;;;;;5109908;27;20058;-64
2024/01/20 13:24:46;;;;;;;21.57;9.00;;;;;;;;;;5112994;27;20035;-64
2024/01/20 13:27:12;;;;;;;20.47;9.10;;;;;;;;;;5104160;28;20079;-63
2024/01/20 13:29:37;;;;;;;21.77;9.37;;;;;;;;;;5109428;27;20383;-64
2024/01/20 13:32:02;;;;;;;18.47;7.50;;;;;;;;;;5108002;27;20026;-63
2024/01/20 13:34:28;;;;;;;23.87;9.77;;;;;;;;;;5106298;27;20020;-64
2024/01/20 13:36:53;;;;;;;24.37;10.30;;;;;;;;;;5114093;27;20028;-64
2024/01/20 13:39:18;;;;;;;24.63;9.70;;;;;;;;;;5103897;27;20451;-64
2024/01/20 13:41:44;;;;;;;27.43;11.53;;;;;;;;;;5110072;28;20027;-64
2024/01/20 13:44:09;;;;;;;23.73;9.83;;;;;;;;;;5109989;27;20032;-64
2024/01/20 13:46:34;;;;;;;25.20;10.77;;;;;;;;;;5103314;28;20035;-63
2024/01/20 13:48:59;;;;;;;24.63;10.30;;;;;;;;;;5101483;27;20380;-64
2024/01/20 13:51:27;;;;;;;24.77;10.03;;;;;;;;;;5103236;28;20099;-64
2024/01/20 13:53:53;;;;;;;23.03;7.43;;;;;;;;;;5107285;28;20080;-64
2024/01/20 13:56:20;;;;;;;32.03;11.50;;;;;;;;;;5107552;28;20027;-64
2024/01/20 13:58:45;;;;;;;33.37;12.47;;;;;;;;;;5105668;28;20020;-63
2024/01/20 14:01:11;;;;;;;32.13;11.03;;;;;;;;;;5105848;28;20024;-64
2024/01/20 14:03:36;;;;;;;28.17;10.07;;;;;;;;;;5089608;28;20051;-63
2024/01/20 14:06:02;;;;;;;29.70;10.93;;;;;;;;;;5086562;28;20031;-64
2024/01/20 14:08:27;;;;;;;27.57;10.83;;;;;;;;;;5087987;28;20022;-63